sensor_id;sensor_type;location;lat;lon;timestamp;pressure;altitude;pressure_sealevel;temperature;humidity
36284;BME280;56085;48.910;9.478;2023-12-22T00:00:56;96860.84;;;11.57;55.55
36284;BME280;56085;48.910;9.478;2023-12-22T00:03:22;96866.66;;;11.80;54.99
36284;BME280;56085;48.910;9.478;2023-12-22T00:05:47;96856.41;;;11.74;55.30
36284;BME280;56085;48.910;9.478;2023-12-22T00:08:13;96819.63;;;11.69;54.82
36284;BME280;56085;48.910;9.478;2023-12-22T00:10:38;96799.41;;;11.83;54.31
36284;BME280;56085;48.910;9.478;2023-12-22T00:13:03;96811.31;;;11.73;54.43
36284;BME280;56085;48.910;9.478;2023-12-22T00:15:28;96804.06;;;11.27;55.61
36284;BME280;56085;48.910;9.478;2023-12-22T00:17:53;96793.97;;;11.65;55.16
36284;BME280;56085;48.910;9.478;2023-12-22T00:20:18;96789.38;;;12.04;53.94
36284;BME280;56085;48.910;9.478;2023-12-22T00:22:44;96890.84;;;11.69;54.54
36284;BME280;56085;48.910;9.478;2023-12-22T00:25:09;96865.66;;;11.42;55.94
36284;BME280;56085;48.910;9.478;2023-12-22T00:27:35;96851.03;;;11.41;55.34
36284;BME280;56085;48.910;9.478;2023-12-22T00:30:00;96889.09;;;10.97;55.27
36284;BME280;56085;48.910;9.478;2023-12-22T00:32:25;96900.09;;;11.23;54.81
36284;BME280;56085;48.910;9.478;2023-12-22T00:34:50;96888.69;;;11.13;54.47
36284;BME280;56085;48.910;9.478;2023-12-22T00:37:15;96906.91;;;10.78;54.20
36284;BME280;56085;48.910;9.478;2023-12-22T00:39:41;96911.66;;;10.71;54.85
36284;BME280;56085;48.910;9.478;2023-12-22T00:42:06;96931.41;;;10.55;54.68
36284;BME280;56085;48.910;9.478;2023-12-22T00:44:31;96955.88;;;10.67;54.91
36284;BME280;56085;48.910;9.478;2023-12-22T00:46:56;96969.72;;;10.56;55.05
36284;BME280;56085;48.910;9.478;2023-12-22T00:49:21;96964.56;;;10.55;54.73
36284;BME280;56085;48.910;9.478;2023-12-22T00:51:47;96959.03;;;10.51;55.50
36284;BME280;56085;48.910;9.478;2023-12-22T00:54:12;96955.47;;;10.36;55.45
36284;BME280;56085;48.910;9.478;2023-12-22T00:56:37;96956.22;;;10.22;55.46
36284;BME280;56085;48.910;9.478;2023-12-22T00:59:02;96937.19;;;9.92;55.85
36284;BME280;56085;48.910;9.478;2023-12-22T01:01:28;96950.59;;;9.90;56.27
36284;BME280;56085;48.910;9.478;2023-12-22T01:03:53;96958.59;;;10.31;55.39
36284;BME280;56085;48.910;9.478;2023-12-22T01:06:18;96951.91;;;10.36;55.09
36284;BME280;56085;48.910;9.478;2023-12-22T01:08:43;96934.91;;;10.23;55.57
36284;BME280;56085;48.910;9.478;2023-12-22T01:11:09;96929.31;;;9.98;55.32
36284;BME280;56085;48.910;9.478;2023-12-22T01:13:34;96934.13;;;10.33;54.99
36284;BME280;56085;48.910;9.478;2023-12-22T01:15:59;96915.19;;;10.31;54.89
36284;BME280;56085;48.910;9.478;2023-12-22T01:18:24;96915.59;;;10.48;54.66
36284;BME280;56085;48.910;9.478;2023-12-22T01:20:53;96928.63;;;10.47;54.14
36284;BME280;56085;48.910;9.478;2023-12-22T01:23:19;96909.28;;;10.47;54.35
36284;BME280;56085;48.910;9.478;2023-12-22T01:25:44;96910.84;;;10.77;53.51
36284;BME280;56085;48.910;9.478;2023-12-22T01:28:09;96921.16;;;10.59;54.01
36284;BME280;56085;48.910;9.478;2023-12-22T01:30:34;96908.09;;;10.52;54.18
36284;BME280;56085;48.910;9.478;2023-12-22T01:33:00;96911.66;;;10.38;54.74
36284;BME280;56085;48.910;9.478;2023-12-22T01:35:25;96913.16;;;10.18;55.27
36284;BME280;56085;48.910;9.478;2023-12-22T01:37:50;96920.31;;;10.29;55.13
36284;BME280;56085;48.910;9.478;2023-12-22T01:40:16;96912.06;;;10.62;54.80
36284;BME280;56085;48.910;9.478;2023-12-22T01:42:41;96911.66;;;10.78;54.45
36284;BME280;56085;48.910;9.478;2023-12-22T01:45:07;96932.59;;;10.75;54.18
36284;BME280;56085;48.910;9.478;2023-12-22T01:47:32;96936.09;;;11.12;53.54
36284;BME280;56085;48.910;9.478;2023-12-22T01:49:58;96917.91;;;11.22;53.22
36284;BME280;56085;48.910;9.478;2023-12-22T01:52:24;96912.00;;;11.12;53.28
36284;BME280;56085;48.910;9.478;2023-12-22T01:54:50;96903.34;;;10.96;53.83
36284;BME280;56085;48.910;9.478;2023-12-22T01:57:15;96902.16;;;10.90;54.04
36284;BME280;56085;48.910;9.478;2023-12-22T01:59:42;96902.19;;;10.68;54.62
36284;BME280;56085;48.910;9.478;2023-12-22T02:02:08;96890.75;;;10.59;54.88
36284;BME280;56085;48.910;9.478;2023-12-22T02:04:33;96887.56;;;10.64;55.11
36284;BME280;56085;48.910;9.478;2023-12-22T02:06:58;96897.47;;;10.47;55.09
36284;BME280;56085;48.910;9.478;2023-12-22T02:09:26;96895.09;;;10.42;55.86
36284;BME280;56085;48.910;9.478;2023-12-22T02:11:52;96886.81;;;10.38;56.33
36284;BME280;56085;48.910;9.478;2023-12-22T02:14:17;96884.03;;;10.42;57.00
36284;BME280;56085;48.910;9.478;2023-12-22T02:19:10;96894.69;;;10.40;58.89
36284;BME280;56085;48.910;9.478;2023-12-22T02:21:58;96902.97;;;10.36;59.10
36284;BME280;56085;48.910;9.478;2023-12-22T02:24:23;96900.22;;;10.65;59.81
36284;BME280;56085;48.910;9.478;2023-12-22T02:26:51;96932.16;;;10.95;58.61
36284;BME280;56085;48.910;9.478;2023-12-22T02:29:17;96917.16;;;10.89;57.52
36284;BME280;56085;48.910;9.478;2023-12-22T02:31:42;96919.53;;;11.01;56.05
36284;BME280;56085;48.910;9.478;2023-12-22T02:34:13;96907.31;;;10.84;56.31
36284;BME280;56085;48.910;9.478;2023-12-22T02:36:43;96921.91;;;10.77;56.61
36284;BME280;56085;48.910;9.478;2023-12-22T02:39:08;96919.97;;;10.45;57.50
36284;BME280;56085;48.910;9.478;2023-12-22T02:41:35;96892.72;;;10.40;58.11
36284;BME280;56085;48.910;9.478;2023-12-22T02:44:00;96895.06;;;10.53;58.13
36284;BME280;56085;48.910;9.478;2023-12-22T02:46:26;96882.84;;;10.57;57.92
36284;BME280;56085;48.910;9.478;2023-12-22T02:48:51;96887.97;;;10.73;57.50
36284;BME280;56085;48.910;9.478;2023-12-22T02:51:16;96889.56;;;10.71;56.82
36284;BME280;56085;48.910;9.478;2023-12-22T02:53:41;96890.31;;;10.31;56.86
36284;BME280;56085;48.910;9.478;2023-12-22T02:56:06;96902.56;;;10.70;56.08
36284;BME280;56085;48.910;9.478;2023-12-22T02:58:32;96891.53;;;10.56;55.32
36284;BME280;56085;48.910;9.478;2023-12-22T03:00:57;96898.25;;;10.55;55.01
36284;BME280;56085;48.910;9.478;2023-12-22T03:03:22;96901.00;;;10.91;54.13
36284;BME280;56085;48.910;9.478;2023-12-22T03:05:47;96916.38;;;10.88;54.35
36284;BME280;56085;48.910;9.478;2023-12-22T03:08:12;96911.59;;;11.10;54.21
36284;BME280;56085;48.910;9.478;2023-12-22T03:10:37;96900.94;;;11.09;53.81
36284;BME280;56085;48.910;9.478;2023-12-22T03:13:03;96892.59;;;11.20;54.20
36284;BME280;56085;48.910;9.478;2023-12-22T03:15:28;96867.31;;;11.14;54.40
36284;BME280;56085;48.910;9.478;2023-12-22T03:17:53;96869.72;;;11.12;54.66
36284;BME280;56085;48.910;9.478;2023-12-22T03:20:18;96868.47;;;11.31;54.33
36284;BME280;56085;48.910;9.478;2023-12-22T03:22:43;96859.44;;;11.05;54.42
36284;BME280;56085;48.910;9.478;2023-12-22T03:25:08;96863.47;;;10.82;54.91
36284;BME280;56085;48.910;9.478;2023-12-22T03:27:34;96853.50;;;11.14;54.92
36284;BME280;56085;48.910;9.478;2023-12-22T03:29:59;96878.03;;;11.05;54.97
36284;BME280;56085;48.910;9.478;2023-12-22T03:32:24;96861.47;;;10.94;55.07
36284;BME280;56085;48.910;9.478;2023-12-22T03:34:49;96867.38;;;11.03;55.44
36284;BME280;56085;48.910;9.478;2023-12-22T03:37:14;96888.34;;;10.90;55.61
36284;BME280;56085;48.910;9.478;2023-12-22T03:39:40;96902.13;;;11.18;54.46
36284;BME280;56085;48.910;9.478;2023-12-22T03:42:05;96908.06;;;10.99;53.94
36284;BME280;56085;48.910;9.478;2023-12-22T03:44:30;96906.81;;;11.36;54.12
36284;BME280;56085;48.910;9.478;2023-12-22T03:46:55;96903.31;;;11.10;53.96
36284;BME280;56085;48.910;9.478;2023-12-22T03:49:21;96890.28;;;11.07;54.03
36284;BME280;56085;48.910;9.478;2023-12-22T03:51:46;96898.47;;;11.40;53.20
36284;BME280;56085;48.910;9.478;2023-12-22T03:54:11;96887.00;;;11.45;53.17
36284;BME280;56085;48.910;9.478;2023-12-22T03:56:36;96896.53;;;11.29;53.02
36284;BME280;56085;48.910;9.478;2023-12-22T03:59:02;96893.41;;;11.16;52.51
36284;BME280;56085;48.910;9.478;2023-12-22T04:01:27;96890.63;;;11.27;52.97
36284;BME280;56085;48.910;9.478;2023-12-22T04:03:52;96890.25;;;11.22;52.49
36284;BME280;56085;48.910;9.478;2023-12-22T04:06:17;96893.03;;;11.14;52.13
36284;BME280;56085;48.910;9.478;2023-12-22T04:08:42;96894.53;;;11.41;51.83
36284;BME280;56085;48.910;9.478;2023-12-22T04:11:08;96917.81;;;11.54;51.65
36284;BME280;56085;48.910;9.478;2023-12-22T04:13:33;96900.44;;;11.46;51.71
36284;BME280;56085;48.910;9.478;2023-12-22T04:15:58;96935.19;;;11.58;51.62
36284;BME280;56085;48.910;9.478;2023-12-22T04:18:23;96930.84;;;11.57;52.25
36284;BME280;56085;48.910;9.478;2023-12-22T04:20:48;96919.91;;;11.03;54.19
36284;BME280;56085;48.910;9.478;2023-12-22T04:23:18;96942.44;;;11.02;54.72
36284;BME280;56085;48.910;9.478;2023-12-22T04:25:43;96924.28;;;10.82;56.40
36284;BME280;56085;48.910;9.478;2023-12-22T04:28:09;96931.78;;;10.50;57.94
36284;BME280;56085;48.910;9.478;2023-12-22T04:30:34;96934.16;;;10.55;58.20
36284;BME280;56085;48.910;9.478;2023-12-22T04:32:59;96930.56;;;10.29;59.01
36284;BME280;56085;48.910;9.478;2023-12-22T04:35:25;96945.06;;;9.90;62.21
36284;BME280;56085;48.910;9.478;2023-12-22T04:37:50;96934.47;;;9.99;63.76
36284;BME280;56085;48.910;9.478;2023-12-22T04:40:15;96961.31;;;10.13;63.17
36284;BME280;56085;48.910;9.478;2023-12-22T04:42:41;96958.53;;;10.02;63.62
36284;BME280;56085;48.910;9.478;2023-12-22T04:45:06;96972.75;;;10.19;63.46
36284;BME280;56085;48.910;9.478;2023-12-22T04:47:32;96975.50;;;10.11;63.61
36284;BME280;56085;48.910;9.478;2023-12-22T04:49:57;96980.91;;;9.79;64.19
36284;BME280;56085;48.910;9.478;2023-12-22T04:52:22;96975.50;;;10.08;63.54
36284;BME280;56085;48.910;9.478;2023-12-22T04:54:47;96972.75;;;10.08;63.14
36284;BME280;56085;48.910;9.478;2023-12-22T04:57:13;96963.75;;;10.43;62.35
36284;BME280;56085;48.910;9.478;2023-12-22T04:59:38;96961.78;;;10.37;61.72
36284;BME280;56085;48.910;9.478;2023-12-22T05:02:03;96951.06;;;10.24;61.06
36284;BME280;56085;48.910;9.478;2023-12-22T05:04:28;96951.91;;;10.36;60.12
36284;BME280;56085;48.910;9.478;2023-12-22T05:06:53;96943.97;;;10.27;59.55
36284;BME280;56085;48.910;9.478;2023-12-22T05:09:18;96939.25;;;10.31;59.12
36284;BME280;56085;48.910;9.478;2023-12-22T05:11:44;96951.47;;;10.26;58.45
36284;BME280;56085;48.910;9.478;2023-12-22T05:14:09;96945.22;;;10.58;58.13
36284;BME280;56085;48.910;9.478;2023-12-22T05:16:34;96940.06;;;10.39;58.21
36284;BME280;56085;48.910;9.478;2023-12-22T05:19:00;96959.03;;;10.47;57.67
36284;BME280;56085;48.910;9.478;2023-12-22T05:21:25;96969.31;;;10.58;57.73
36284;BME280;56085;48.910;9.478;2023-12-22T05:23:50;96968.50;;;10.86;57.76
36284;BME280;56085;48.910;9.478;2023-12-22T05:26:16;96977.19;;;10.52;57.42
36284;BME280;56085;48.910;9.478;2023-12-22T05:28:41;96972.47;;;10.63;57.31
36284;BME280;56085;48.910;9.478;2023-12-22T05:31:06;96983.94;;;10.83;57.20
36284;BME280;56085;48.910;9.478;2023-12-22T05:33:32;96959.03;;;10.80;57.25
36284;BME280;56085;48.910;9.478;2023-12-22T05:35:57;96958.25;;;10.83;57.21
36284;BME280;56085;48.910;9.478;2023-12-22T05:38:22;96958.25;;;10.94;57.04
36284;BME280;56085;48.910;9.478;2023-12-22T05:40:48;96958.25;;;10.61;57.75
36284;BME280;56085;48.910;9.478;2023-12-22T05:43:13;96981.94;;;10.77;57.99
36284;BME280;56085;48.910;9.478;2023-12-22T05:45:39;96980.38;;;10.69;57.36
36284;BME280;56085;48.910;9.478;2023-12-22T05:48:05;96988.97;;;10.27;58.12
36284;BME280;56085;48.910;9.478;2023-12-22T05:50:30;96987.75;;;10.25;56.44
36284;BME280;56085;48.910;9.478;2023-12-22T05:52:55;97002.47;;;10.65;56.33
36284;BME280;56085;48.910;9.478;2023-12-22T05:55:20;96995.41;;;10.75;55.82
36284;BME280;56085;48.910;9.478;2023-12-22T05:57:45;96978.00;;;11.17;56.06
36284;BME280;56085;48.910;9.478;2023-12-22T06:00:11;96980.38;;;11.12;56.35
36284;BME280;56085;48.910;9.478;2023-12-22T06:02:37;96974.84;;;10.97;56.75
36284;BME280;56085;48.910;9.478;2023-12-22T06:05:03;96978.75;;;11.36;56.94
36284;BME280;56085;48.910;9.478;2023-12-22T06:07:28;96966.53;;;10.69;58.08
36284;BME280;56085;48.910;9.478;2023-12-22T06:09:54;96984.31;;;10.86;58.11
36284;BME280;56085;48.910;9.478;2023-12-22T06:12:19;97001.72;;;10.82;58.68
36284;BME280;56085;48.910;9.478;2023-12-22T06:14:44;96979.59;;;10.68;58.35
36284;BME280;56085;48.910;9.478;2023-12-22T06:17:09;97007.63;;;10.99;58.27
36284;BME280;56085;48.910;9.478;2023-12-22T06:19:37;97006.44;;;10.78;57.71
36284;BME280;56085;48.910;9.478;2023-12-22T06:22:03;97004.06;;;10.80;57.86
36284;BME280;56085;48.910;9.478;2023-12-22T06:24:28;97006.81;;;10.62;57.52
36284;BME280;56085;48.910;9.478;2023-12-22T06:26:53;97045.16;;;10.75;57.03
36284;BME280;56085;48.910;9.478;2023-12-22T06:29:18;97038.81;;;10.63;55.77
36284;BME280;56085;48.910;9.478;2023-12-22T06:31:44;97039.63;;;11.00;55.48
36284;BME280;56085;48.910;9.478;2023-12-22T06:34:09;97053.84;;;10.84;55.38
36284;BME280;56085;48.910;9.478;2023-12-22T06:36:34;97051.47;;;11.00;54.68
36284;BME280;56085;48.910;9.478;2023-12-22T06:38:59;97060.19;;;11.06;54.77
36284;BME280;56085;48.910;9.478;2023-12-22T06:41:25;97064.13;;;11.20;54.37
36284;BME280;56085;48.910;9.478;2023-12-22T06:43:51;97081.13;;;11.18;54.41
36284;BME280;56085;48.910;9.478;2023-12-22T06:46:20;97091.00;;;11.05;54.28
36284;BME280;56085;48.910;9.478;2023-12-22T06:48:47;97053.47;;;11.07;55.05
36284;BME280;56085;48.910;9.478;2023-12-22T06:51:19;97068.88;;;11.15;55.12
36284;BME280;56085;48.910;9.478;2023-12-22T06:53:45;97069.25;;;11.35;55.11
36284;BME280;56085;48.910;9.478;2023-12-22T06:56:16;97066.50;;;11.14;54.97
36284;BME280;56085;48.910;9.478;2023-12-22T06:58:42;97076.78;;;11.06;54.65
36284;BME280;56085;48.910;9.478;2023-12-22T07:01:07;97077.97;;;11.20;54.50
36284;BME280;56085;48.910;9.478;2023-12-22T07:03:33;97089.00;;;11.66;53.62
36284;BME280;56085;48.910;9.478;2023-12-22T07:05:58;97087.84;;;11.10;53.96
36284;BME280;56085;48.910;9.478;2023-12-22T07:08:24;97083.88;;;11.18;53.65
36284;BME280;56085;48.910;9.478;2023-12-22T07:10:49;97089.44;;;11.54;53.01
36284;BME280;56085;48.910;9.478;2023-12-22T07:13:14;97088.25;;;11.05;52.92
36284;BME280;56085;48.910;9.478;2023-12-22T07:15:39;97089.81;;;10.98;53.37
36284;BME280;56085;48.910;9.478;2023-12-22T07:18:04;97120.22;;;10.95;52.75
36284;BME280;56085;48.910;9.478;2023-12-22T07:20:30;97110.38;;;11.15;52.83
36284;BME280;56085;48.910;9.478;2023-12-22T07:22:55;97096.94;;;10.92;52.53
36284;BME280;56085;48.910;9.478;2023-12-22T07:25:21;97119.47;;;11.20;52.40
36284;BME280;56085;48.910;9.478;2023-12-22T07:27:46;97108.78;;;11.25;52.51
36284;BME280;56085;48.910;9.478;2023-12-22T07:30:12;97137.28;;;11.26;52.85
36284;BME280;56085;48.910;9.478;2023-12-22T07:32:40;97117.91;;;11.29;52.89
36284;BME280;56085;48.910;9.478;2023-12-22T07:35:06;97130.13;;;11.28;52.88
36284;BME280;56085;48.910;9.478;2023-12-22T07:37:34;97113.94;;;11.56;52.88
36284;BME280;56085;48.910;9.478;2023-12-22T07:40:00;97110.00;;;11.17;53.49
36284;BME280;56085;48.910;9.478;2023-12-22T07:42:25;97127.78;;;11.34;53.39
36284;BME280;56085;48.910;9.478;2023-12-22T07:44:50;97132.13;;;11.49;53.28
36284;BME280;56085;48.910;9.478;2023-12-22T07:47:15;97134.91;;;11.49;53.74
36284;BME280;56085;48.910;9.478;2023-12-22T07:49:40;97144.78;;;11.47;53.44
36284;BME280;56085;48.910;9.478;2023-12-22T07:52:06;97147.13;;;11.52;53.64
36284;BME280;56085;48.910;9.478;2023-12-22T07:54:31;97168.50;;;11.51;53.80
36284;BME280;56085;48.910;9.478;2023-12-22T07:56:56;97177.19;;;11.61;53.45
36284;BME280;56085;48.910;9.478;2023-12-22T07:59:21;97142.78;;;11.55;53.67
36284;BME280;56085;48.910;9.478;2023-12-22T08:01:46;97149.94;;;11.38;54.18
36284;BME280;56085;48.910;9.478;2023-12-22T08:04:12;97165.34;;;11.49;54.32
36284;BME280;56085;48.910;9.478;2023-12-22T08:06:37;97161.41;;;11.36;54.69
36284;BME280;56085;48.910;9.478;2023-12-22T08:09:02;97177.59;;;11.70;53.91
36284;BME280;56085;48.910;9.478;2023-12-22T08:11:28;97165.75;;;11.62;53.80
36284;BME280;56085;48.910;9.478;2023-12-22T08:13:53;97185.13;;;11.73;53.66
36284;BME280;56085;48.910;9.478;2023-12-22T08:16:18;97198.19;;;11.94;53.55
36284;BME280;56085;48.910;9.478;2023-12-22T08:18:43;97188.28;;;11.90;54.17
36284;BME280;56085;48.910;9.478;2023-12-22T08:21:09;97191.84;;;11.76;55.13
36284;BME280;56085;48.910;9.478;2023-12-22T08:23:34;97196.19;;;11.48;56.11
36284;BME280;56085;48.910;9.478;2023-12-22T08:25:59;97206.09;;;11.60;56.76
36284;BME280;56085;48.910;9.478;2023-12-22T08:28:25;97200.94;;;11.62;57.00
36284;BME280;56085;48.910;9.478;2023-12-22T08:30:51;97189.06;;;11.47;57.69
36284;BME280;56085;48.910;9.478;2023-12-22T08:33:17;97185.13;;;11.55;57.56
36284;BME280;56085;48.910;9.478;2023-12-22T08:35:42;97178.75;;;11.33;57.94
36284;BME280;56085;48.910;9.478;2023-12-22T08:38:07;97175.19;;;11.25;57.88
36284;BME280;56085;48.910;9.478;2023-12-22T08:40:33;97176.75;;;11.12;59.05
36284;BME280;56085;48.910;9.478;2023-12-22T08:42:58;97177.19;;;11.32;59.07
36284;BME280;56085;48.910;9.478;2023-12-22T08:45:25;97168.47;;;11.30;59.32
36284;BME280;56085;48.910;9.478;2023-12-22T08:47:51;97185.03;;;11.05;59.86
36284;BME280;56085;48.910;9.478;2023-12-22T08:50:16;97188.59;;;11.02;59.91
36284;BME280;56085;48.910;9.478;2023-12-22T08:52:41;97185.88;;;11.16;59.63
36284;BME280;56085;48.910;9.478;2023-12-22T08:55:07;97187.06;;;11.29;59.23
36284;BME280;56085;48.910;9.478;2023-12-22T08:57:32;97199.28;;;11.14;60.02
36284;BME280;56085;48.910;9.478;2023-12-22T08:59:57;97203.28;;;11.31;59.96
36284;BME280;56085;48.910;9.478;2023-12-22T09:02:22;97194.59;;;11.40;59.79
36284;BME280;56085;48.910;9.478;2023-12-22T09:04:48;97219.81;;;11.09;60.32
36284;BME280;56085;48.910;9.478;2023-12-22T09:07:13;97181.53;;;11.29;60.48
36284;BME280;56085;48.910;9.478;2023-12-22T09:09:38;97173.19;;;10.97;62.10
36284;BME280;56085;48.910;9.478;2023-12-22T09:12:03;97193.75;;;11.14;62.19
36284;BME280;56085;48.910;9.478;2023-12-22T09:14:29;97185.44;;;11.14;61.94
36284;BME280;56085;48.910;9.478;2023-12-22T09:16:55;97192.16;;;11.06;61.97
36284;BME280;56085;48.910;9.478;2023-12-22T09:19:21;97194.50;;;10.93;62.75
36284;BME280;56085;48.910;9.478;2023-12-22T09:21:46;97200.84;;;10.97;62.59
36284;BME280;56085;48.910;9.478;2023-12-22T09:24:11;97185.06;;;11.19;62.63
36284;BME280;56085;48.910;9.478;2023-12-22T09:26:37;97182.88;;;10.47;63.86
36284;BME280;56085;48.910;9.478;2023-12-22T09:29:02;97186.91;;;10.72;64.40
36284;BME280;56085;48.910;9.478;2023-12-22T09:31:27;97215.03;;;10.88;63.29
36284;BME280;56085;48.910;9.478;2023-12-22T09:33:53;97202.75;;;10.75;63.07
36284;BME280;56085;48.910;9.478;2023-12-22T09:36:18;97220.09;;;10.75;63.02
36284;BME280;56085;48.910;9.478;2023-12-22T09:38:43;97219.81;;;11.02;62.11
36284;BME280;56085;48.910;9.478;2023-12-22T09:41:09;97235.63;;;11.12;62.00
36284;BME280;56085;48.910;9.478;2023-12-22T09:43:35;97227.31;;;11.02;61.42
36284;BME280;56085;48.910;9.478;2023-12-22T09:46:03;97229.31;;;11.08;61.47
36284;BME280;56085;48.910;9.478;2023-12-22T09:48:30;97219.44;;;11.07;60.76
36284;BME280;56085;48.910;9.478;2023-12-22T09:50:55;97217.44;;;11.00;60.45
36284;BME280;56085;48.910;9.478;2023-12-22T09:53:21;97226.94;;;11.14;59.69
36284;BME280;56085;48.910;9.478;2023-12-22T09:55:46;97212.75;;;11.30;59.30
36284;BME280;56085;48.910;9.478;2023-12-22T09:58:12;97240.41;;;11.23;59.12
36284;BME280;56085;48.910;9.478;2023-12-22T10:00:39;97215.53;;;11.26;58.69
36284;BME280;56085;48.910;9.478;2023-12-22T10:03:05;97200.13;;;11.50;58.08
36284;BME280;56085;48.910;9.478;2023-12-22T10:05:31;97211.97;;;11.40;58.05
36284;BME280;56085;48.910;9.478;2023-12-22T10:07:56;97211.22;;;11.47;57.57
36284;BME280;56085;48.910;9.478;2023-12-22T10:10:21;97202.91;;;11.47;56.99
36284;BME280;56085;48.910;9.478;2023-12-22T10:12:48;97190.66;;;11.84;56.17
36284;BME280;56085;48.910;9.478;2023-12-22T10:15:13;97187.88;;;11.66;55.91
36284;BME280;56085;48.910;9.478;2023-12-22T10:17:39;97186.66;;;11.13;56.51
36284;BME280;56085;48.910;9.478;2023-12-22T10:20:05;97194.19;;;11.41;56.72
36284;BME280;56085;48.910;9.478;2023-12-22T10:22:30;97183.91;;;11.42;55.95
36284;BME280;56085;48.910;9.478;2023-12-22T10:24:55;97166.50;;;11.88;55.18
36284;BME280;56085;48.910;9.478;2023-12-22T10:27:20;97163.38;;;11.86;55.27
36284;BME280;56085;48.910;9.478;2023-12-22T10:29:49;97156.25;;;11.67;54.83
36284;BME280;56085;48.910;9.478;2023-12-22T10:32:15;97148.69;;;11.93;54.75
36284;BME280;56085;48.910;9.478;2023-12-22T10:34:40;97147.94;;;11.88;54.22
36284;BME280;56085;48.910;9.478;2023-12-22T10:37:05;97156.25;;;11.81;53.84
36284;BME280;56085;48.910;9.478;2023-12-22T10:39:30;97164.94;;;11.76;53.78
36284;BME280;56085;48.910;9.478;2023-12-22T10:41:56;97159.78;;;12.18;53.86
36284;BME280;56085;48.910;9.478;2023-12-22T10:44:25;97138.41;;;12.11;53.15
36284;BME280;56085;48.910;9.478;2023-12-22T10:46:51;97137.66;;;11.82;53.23
36284;BME280;56085;48.910;9.478;2023-12-22T10:49:17;97142.00;;;11.76;53.53
36284;BME280;56085;48.910;9.478;2023-12-22T10:51:43;97133.28;;;11.88;52.71
36284;BME280;56085;48.910;9.478;2023-12-22T10:54:08;97119.84;;;11.94;53.03
36284;BME280;56085;48.910;9.478;2023-12-22T10:56:33;97129.75;;;11.80;53.86
36284;BME280;56085;48.910;9.478;2023-12-22T10:58:58;97106.38;;;11.88;53.26
36284;BME280;56085;48.910;9.478;2023-12-22T11:01:24;97124.97;;;11.95;53.36
36284;BME280;56085;48.910;9.478;2023-12-22T11:03:53;97120.63;;;11.91;54.07
36284;BME280;56085;48.910;9.478;2023-12-22T11:06:22;97093.75;;;11.95;54.20
36284;BME280;56085;48.910;9.478;2023-12-22T11:08:51;97111.91;;;11.96;54.17
36284;BME280;56085;48.910;9.478;2023-12-22T11:11:20;97109.16;;;11.88;54.33
36284;BME280;56085;48.910;9.478;2023-12-22T11:13:51;97110.69;;;12.11;54.65
36284;BME280;56085;48.910;9.478;2023-12-22T11:16:17;97097.69;;;11.97;56.08
36284;BME280;56085;48.910;9.478;2023-12-22T11:18:44;97092.91;;;12.05;56.21
36284;BME280;56085;48.910;9.478;2023-12-22T11:21:10;97094.06;;;12.15;55.86
36284;BME280;56085;48.910;9.478;2023-12-22T11:23:37;97101.66;;;11.75;55.94
36284;BME280;56085;48.910;9.478;2023-12-22T11:26:03;97100.88;;;11.81;56.13
36284;BME280;56085;48.910;9.478;2023-12-22T11:28:30;97078.69;;;11.85;56.69
36284;BME280;56085;48.910;9.478;2023-12-22T11:30:56;97081.00;;;12.15;56.45
36284;BME280;56085;48.910;9.478;2023-12-22T11:33:23;97059.25;;;12.10;56.47
36284;BME280;56085;48.910;9.478;2023-12-22T11:35:50;97072.72;;;12.08;57.05
36284;BME280;56085;48.910;9.478;2023-12-22T11:38:17;97063.22;;;12.05;56.83
36284;BME280;56085;48.910;9.478;2023-12-22T11:40:42;97039.72;;;12.39;56.63
36284;BME280;56085;48.910;9.478;2023-12-22T11:43:07;97052.19;;;11.87;57.07
36284;BME280;56085;48.910;9.478;2023-12-22T11:45:33;97039.88;;;12.07;56.70
36284;BME280;56085;48.910;9.478;2023-12-22T11:48:06;97041.72;;;12.35;56.16
36284;BME280;56085;48.910;9.478;2023-12-22T11:50:32;97019.25;;;12.18;55.90
36284;BME280;56085;48.910;9.478;2023-12-22T11:53:17;97037.28;;;12.48;55.86
36284;BME280;56085;48.910;9.478;2023-12-22T12:01:11;97006.22;;;12.08;55.38
36284;BME280;56085;48.910;9.478;2023-12-22T12:03:37;97024.00;;;12.18;56.39
36284;BME280;56085;48.910;9.478;2023-12-22T12:08:38;96993.53;;;12.18;56.59
36284;BME280;56085;48.910;9.478;2023-12-22T12:11:03;96975.00;;;11.97;55.83
36284;BME280;56085;48.910;9.478;2023-12-22T12:13:28;97030.03;;;11.95;55.68
36284;BME280;56085;48.910;9.478;2023-12-22T12:15:55;96979.25;;;12.19;56.13
36284;BME280;56085;48.910;9.478;2023-12-22T12:18:22;96973.78;;;12.01;56.36
36284;BME280;56085;48.910;9.478;2023-12-22T12:20:48;96980.75;;;12.35;56.04
36284;BME280;56085;48.910;9.478;2023-12-22T12:23:14;96976.91;;;12.18;55.33
36284;BME280;56085;48.910;9.478;2023-12-22T12:25:40;96982.44;;;12.14;56.04
36284;BME280;56085;48.910;9.478;2023-12-22T12:28:06;96971.00;;;12.09;55.61
36284;BME280;56085;48.910;9.478;2023-12-22T12:30:32;96979.72;;;12.07;55.61
36284;BME280;56085;48.910;9.478;2023-12-22T12:33:07;96956.72;;;12.10;55.32
36284;BME280;56085;48.910;9.478;2023-12-22T12:35:32;96971.78;;;12.13;55.68
36284;BME280;56085;48.910;9.478;2023-12-22T12:37:58;96979.31;;;12.09;55.36
36284;BME280;56085;48.910;9.478;2023-12-22T12:40:24;96970.88;;;12.30;55.23
36284;BME280;56085;48.910;9.478;2023-12-22T12:42:50;96969.78;;;12.13;56.47
36284;BME280;56085;48.910;9.478;2023-12-22T12:45:15;96956.88;;;12.52;55.69
36284;BME280;56085;48.910;9.478;2023-12-22T12:47:40;96959.31;;;11.58;58.63
36284;BME280;56085;48.910;9.478;2023-12-22T12:50:05;96977.81;;;11.86;59.25
36284;BME280;56085;48.910;9.478;2023-12-22T12:52:30;96962.38;;;11.85;58.56
36284;BME280;56085;48.910;9.478;2023-12-22T12:54:56;96965.91;;;11.96;58.23
36284;BME280;56085;48.910;9.478;2023-12-22T12:57:23;96963.56;;;11.95;58.12
36284;BME280;56085;48.910;9.478;2023-12-22T12:59:49;96970.66;;;11.96;57.72
36284;BME280;56085;48.910;9.478;2023-12-22T13:02:15;96969.63;;;12.42;56.79